Time;durP1;ratioP1;P1;durP2;ratioP2;P2;SDS_P1;SDS_P2;PMS_P1;PMS_P2;Temp;Humidity;BMP_temperature;BMP_pressure;BME280_temperature;BME280_humidity;BME280_pressure;Samples;Min_cycle;Max_cycle;Signal;HPM_P1;HPM_P2
2022/07/09 00:01:05;;;;;;;25.02;23.00;;;16.90;99.90;;;;;;5075865;28;20461;-74
2022/07/09 00:03:31;;;;;;;25.23;22.88;;;16.80;99.90;;;;;;5052944;28;20079;-74
2022/07/09 00:05:58;;;;;;;25.77;23.45;;;16.90;99.90;;;;;;5062973;28;20063;-75
2022/07/09 00:08:25;;;;;;;25.45;23.40;;;16.90;99.90;;;;;;5072366;28;20114;-75
2022/07/09 00:10:52;;;;;;;24.85;22.95;;;17.00;99.90;;;;;;5055201;28;20515;-75
2022/07/09 00:13:19;;;;;;;25.10;22.88;;;17.00;99.90;;;;;;5068378;28;20044;-74
2022/07/09 00:15:46;;;;;;;25.83;23.65;;;17.10;99.90;;;;;;5069989;28;20055;-75
2022/07/09 00:18:13;;;;;;;27.73;25.02;;;17.00;99.90;;;;;;5062924;28;20447;-74
2022/07/09 00:20:39;;;;;;;27.17;24.95;;;17.10;99.90;;;;;;5060614;28;20040;-74
2022/07/09 00:23:06;;;;;;;25.60;23.65;;;17.00;99.90;;;;;;5077879;28;20051;-74
2022/07/09 00:25:33;;;;;;;24.98;23.13;;;16.90;99.90;;;;;;5071646;28;20044;-75
2022/07/09 00:28:00;;;;;;;26.98;24.83;;;16.90;99.90;;;;;;5053511;28;20725;-73
2022/07/09 00:30:27;;;;;;;25.88;23.75;;;17.00;99.90;;;;;;5054658;28;20051;-73
2022/07/09 00:32:54;;;;;;;26.35;23.77;;;16.90;99.90;;;;;;5054515;28;20551;-73
2022/07/09 00:35:20;;;;;;;25.52;23.48;;;16.90;99.90;;;;;;5054382;28;20045;-72
2022/07/09 00:37:47;;;;;;;25.23;23.15;;;16.80;99.90;;;;;;5075242;28;20097;-72
2022/07/09 00:40:14;;;;;;;26.20;23.88;;;16.80;99.90;;;;;;5067037;28;20094;-73
2022/07/09 00:42:41;;;;;;;25.65;23.55;;;16.70;99.90;;;;;;5069231;28;20067;-72
2022/07/09 00:45:08;;;;;;;28.15;25.85;;;16.70;99.90;;;;;;5080900;28;20599;-73
2022/07/09 00:47:35;;;;;;;27.13;24.45;;;16.60;99.90;;;;;;5068301;28;20494;-72
2022/07/09 00:50:02;;;;;;;27.85;25.50;;;16.50;99.90;;;;;;5055985;28;20040;-73
2022/07/09 00:52:30;;;;;;;27.35;25.02;;;16.50;99.90;;;;;;5073629;28;20044;-73
2022/07/09 00:55:00;;;;;;;30.33;26.50;;;16.40;99.90;;;;;;5070181;28;20037;-73
2022/07/09 00:57:28;;;;;;;27.50;25.30;;;16.30;99.90;;;;;;5071274;28;20101;-73
2022/07/09 00:59:56;;;;;;;29.52;26.45;;;16.30;99.90;;;;;;5078950;28;20060;-73
2022/07/09 01:02:23;;;;;;;28.67;25.95;;;16.40;99.90;;;;;;5057020;28;20060;-73
2022/07/09 01:04:50;;;;;;;28.58;25.77;;;16.40;99.90;;;;;;5056679;28;20477;-73
2022/07/09 01:07:18;;;;;;;28.00;25.48;;;16.30;99.90;;;;;;5056026;28;20113;-72
2022/07/09 01:09:45;;;;;;;27.45;25.00;;;16.20;99.90;;;;;;5049604;28;20068;-72
2022/07/09 01:12:11;;;;;;;27.55;25.15;;;16.20;99.90;;;;;;5053102;28;20090;-72
2022/07/09 01:14:38;;;;;;;27.33;24.83;;;16.20;99.90;;;;;;5076245;28;20801;-73
2022/07/09 01:17:06;;;;;;;26.85;24.75;;;16.20;99.90;;;;;;5052197;28;20118;-72
2022/07/09 01:19:34;;;;;;;26.85;24.45;;;16.20;99.90;;;;;;5045766;28;20072;-73
2022/07/09 01:22:01;;;;;;;27.35;24.65;;;16.20;99.90;;;;;;5057171;28;20036;-73
2022/07/09 01:24:33;;;;;;;26.48;23.90;;;16.10;99.90;;;;;;5059760;28;20140;-73
2022/07/09 01:27:00;;;;;;;26.23;24.00;;;16.10;99.90;;;;;;5070858;28;20036;-73
2022/07/09 01:29:27;;;;;;;26.80;24.10;;;16.10;99.90;;;;;;5048060;28;20143;-72
2022/07/09 01:31:54;;;;;;;25.05;22.73;;;16.10;99.90;;;;;;5073978;28;20037;-73
2022/07/09 01:34:21;;;;;;;27.38;22.63;;;16.10;99.90;;;;;;5073395;28;20474;-72
2022/07/09 01:36:48;;;;;;;29.63;23.52;;;16.20;99.90;;;;;;5071552;28;20639;-73
2022/07/09 01:39:15;;;;;;;25.05;22.42;;;16.20;99.90;;;;;;5076786;28;20040;-75
2022/07/09 01:41:41;;;;;;;25.00;22.88;;;16.10;99.90;;;;;;5051640;28;20040;-75
2022/07/09 01:44:08;;;;;;;24.40;21.95;;;16.00;99.90;;;;;;5074383;28;20075;-75
2022/07/09 01:46:35;;;;;;;24.17;21.80;;;16.00;99.90;;;;;;5071682;28;20040;-73
2022/07/09 01:49:03;;;;;;;26.05;23.30;;;15.90;99.90;;;;;;5056014;28;20472;-73
2022/07/09 01:51:30;;;;;;;25.77;23.13;;;15.90;99.90;;;;;;5072343;28;20129;-73
2022/07/09 01:53:57;;;;;;;24.33;22.15;;;15.90;99.90;;;;;;5080511;28;20075;-73
2022/07/09 01:56:23;;;;;;;25.05;22.48;;;15.90;99.90;;;;;;5072830;28;20043;-73
2022/07/09 01:58:50;;;;;;;24.52;21.52;;;16.00;99.90;;;;;;5044300;28;20056;-72
2022/07/09 02:01:17;;;;;;;23.42;21.38;;;16.00;99.90;;;;;;5070181;28;20036;-72
2022/07/09 02:03:44;;;;;;;27.52;23.02;;;15.90;99.90;;;;;;5057927;28;20097;-73
2022/07/09 02:06:11;;;;;;;25.05;22.40;;;15.80;99.90;;;;;;5040811;28;20064;-72
2022/07/09 02:08:39;;;;;;;25.70;21.38;;;15.80;99.90;;;;;;5075475;28;20117;-73
2022/07/09 02:11:06;;;;;;;25.85;22.77;;;15.70;99.90;;;;;;5049525;28;20174;-73
2022/07/09 02:13:34;;;;;;;23.65;21.33;;;15.70;99.90;;;;;;5065877;28;20113;-72
2022/07/09 02:16:02;;;;;;;23.58;20.70;;;15.80;99.90;;;;;;5051093;28;20059;-73
2022/07/09 02:18:29;;;;;;;23.38;21.17;;;15.90;99.90;;;;;;5059568;28;20061;-73
2022/07/09 02:20:57;;;;;;;21.90;19.80;;;15.90;99.90;;;;;;5070979;28;20040;-73
2022/07/09 02:23:23;;;;;;;23.50;21.05;;;16.00;99.90;;;;;;5075081;28;20040;-72
2022/07/09 02:25:50;;;;;;;22.23;19.90;;;16.10;99.90;;;;;;5048744;28;20029;-73
2022/07/09 02:28:17;;;;;;;24.05;20.42;;;16.10;99.90;;;;;;5034076;28;20057;-72
2022/07/09 02:30:44;;;;;;;25.48;20.45;;;16.00;99.90;;;;;;5074611;28;20486;-72
2022/07/09 02:33:11;;;;;;;25.52;21.42;;;16.00;99.90;;;;;;5048137;28;20041;-73
2022/07/09 02:35:38;;;;;;;22.00;19.65;;;16.10;99.90;;;;;;5032871;28;20136;-73
2022/07/09 02:38:05;;;;;;;27.42;21.13;;;16.10;99.90;;;;;;5062133;28;20138;-73
2022/07/09 02:40:31;;;;;;;25.90;22.48;;;16.10;99.90;;;;;;5066647;28;20044;-73
2022/07/09 02:42:58;;;;;;;23.40;20.95;;;16.10;99.90;;;;;;5049276;28;20036;-73
2022/07/09 02:45:25;;;;;;;21.63;19.58;;;16.20;99.90;;;;;;5033152;28;20059;-73
2022/07/09 02:47:52;;;;;;;24.38;21.35;;;16.20;99.90;;;;;;5053957;28;20044;-73
2022/07/09 02:50:19;;;;;;;25.63;21.00;;;16.20;99.90;;;;;;5056695;28;20040;-73
2022/07/09 02:52:46;;;;;;;29.55;21.33;;;16.20;99.90;;;;;;5074707;28;20079;-74
2022/07/09 02:55:13;;;;;;;26.75;20.77;;;16.20;99.90;;;;;;5057329;28;20098;-73
2022/07/09 02:57:40;;;;;;;28.30;20.65;;;16.20;99.90;;;;;;5071059;28;20101;-73
2022/07/09 03:00:07;;;;;;;30.27;21.20;;;16.10;99.90;;;;;;5077825;28;20040;-72
2022/07/09 03:02:34;;;;;;;29.20;21.42;;;16.20;99.90;;;;;;5067037;28;20376;-73
2022/07/09 03:05:01;;;;;;;24.73;20.55;;;16.20;99.90;;;;;;5067147;28;20143;-72
2022/07/09 03:07:27;;;;;;;27.02;21.55;;;16.20;99.90;;;;;;5049386;28;20533;-73
2022/07/09 03:09:55;;;;;;;23.17;20.48;;;16.20;99.90;;;;;;5076560;28;20044;-73
2022/07/09 03:12:22;;;;;;;27.20;22.10;;;16.20;99.90;;;;;;5055052;28;20510;-74
2022/07/09 03:14:49;;;;;;;30.58;21.80;;;16.20;99.90;;;;;;5045035;28;20079;-75
2022/07/09 03:17:15;;;;;;;30.92;23.52;;;16.20;99.90;;;;;;5061245;28;20098;-75
2022/07/09 03:19:42;;;;;;;28.45;23.33;;;16.30;99.90;;;;;;5037680;28;20087;-75
2022/07/09 03:22:09;;;;;;;32.20;23.33;;;16.20;99.90;;;;;;5042367;28;20048;-75
2022/07/09 03:24:36;;;;;;;34.95;23.17;;;16.20;99.90;;;;;;5065115;28;20399;-74
2022/07/09 03:27:03;;;;;;;33.38;24.60;;;16.20;99.90;;;;;;5074528;28;20736;-75
2022/07/09 03:29:29;;;;;;;31.80;24.77;;;16.10;99.90;;;;;;5074755;28;20078;-75
2022/07/09 03:31:56;;;;;;;34.47;25.40;;;16.20;99.90;;;;;;5037180;28;20041;-73
2022/07/09 03:34:23;;;;;;;42.92;26.10;;;16.20;99.90;;;;;;5071268;28;20421;-72
2022/07/09 03:36:50;;;;;;;32.88;23.20;;;16.20;99.90;;;;;;5088770;22;20071;-76
2022/07/09 03:39:16;;;;;;;39.15;25.45;;;16.20;99.90;;;;;;5073746;28;20123;-76
2022/07/09 03:41:43;;;;;;;31.60;23.98;;;16.10;99.90;;;;;;5085438;28;21021;-76
2022/07/09 03:44:10;;;;;;;34.92;26.83;;;16.10;99.90;;;;;;5083273;28;20424;-77
2022/07/09 03:46:37;;;;;;;34.13;24.98;;;16.10;99.90;;;;;;5087616;28;20097;-76
2022/07/09 03:49:04;;;;;;;32.25;25.67;;;16.00;99.90;;;;;;5093368;28;20042;-76
2022/07/09 03:51:31;;;;;;;36.08;24.63;;;16.00;99.90;;;;;;5067816;28;20040;-76
2022/07/09 03:53:58;;;;;;;34.90;24.20;;;16.00;99.90;;;;;;5091630;28;20051;-76
2022/07/09 03:56:25;;;;;;;34.30;25.65;;;16.00;99.90;;;;;;5095489;28;20097;-77
2022/07/09 03:58:51;;;;;;;35.83;24.15;;;16.00;99.90;;;;;;5101304;28;20492;-76
2022/07/09 04:01:18;;;;;;;40.40;24.88;;;16.00;99.90;;;;;;5077820;28;20048;-76
2022/07/09 04:03:45;;;;;;;35.55;25.25;;;16.00;99.90;;;;;;5099836;28;20167;-77
2022/07/09 04:06:12;;;;;;;36.50;25.25;;;16.10;99.90;;;;;;5099272;28;20044;-76
2022/07/09 04:08:39;;;;;;;31.70;25.05;;;16.10;99.90;;;;;;5095359;28;20516;-76
2022/07/09 04:11:06;;;;;;;31.23;24.25;;;16.20;99.90;;;;;;5085293;28;20101;-76
2022/07/09 04:13:35;;;;;;;36.00;25.67;;;16.10;99.90;;;;;;5100616;28;20048;-76
2022/07/09 04:16:02;;;;;;;36.40;25.67;;;16.20;99.90;;;;;;5095057;28;20059;-75
2022/07/09 04:18:29;;;;;;;40.35;24.67;;;16.20;99.90;;;;;;5101135;28;20415;-76
2022/07/09 04:20:57;;;;;;;43.17;26.83;;;16.20;99.90;;;;;;5085250;28;20480;-76
2022/07/09 04:23:23;;;;;;;36.00;26.30;;;16.10;99.90;;;;;;5096753;28;20729;-77
2022/07/09 04:25:53;;;;;;;43.80;27.13;;;16.10;99.90;;;;;;5080754;28;20493;-76
2022/07/09 04:28:20;;;;;;;44.80;25.23;;;16.20;99.90;;;;;;5075886;28;20094;-76
2022/07/09 04:30:47;;;;;;;38.20;25.58;;;16.20;99.90;;;;;;5099491;28;20097;-76
2022/07/09 04:33:14;;;;;;;38.75;25.10;;;16.20;99.90;;;;;;5097061;28;20043;-76
2022/07/09 04:35:41;;;;;;;35.53;24.15;;;16.20;99.90;;;;;;5100280;28;20122;-77
2022/07/09 04:38:08;;;;;;;43.45;24.40;;;16.20;99.90;;;;;;5103710;28;20124;-76
2022/07/09 04:40:35;;;;;;;37.33;23.10;;;16.20;99.90;;;;;;5098098;28;20047;-76
2022/07/09 04:43:02;;;;;;;34.88;23.65;;;16.20;99.90;;;;;;5100323;28;20047;-76
2022/07/09 04:45:29;;;;;;;34.63;22.10;;;16.20;99.90;;;;;;5101752;28;20579;-76
2022/07/09 04:47:58;;;;;;;29.63;21.33;;;16.20;99.90;;;;;;5098555;28;20036;-76
2022/07/09 04:50:25;;;;;;;32.35;23.23;;;16.30;99.90;;;;;;5080661;28;20044;-76
2022/07/09 04:52:52;;;;;;;33.35;22.10;;;16.30;99.90;;;;;;5087892;22;20064;-76
2022/07/09 04:55:19;;;;;;;34.95;22.13;;;16.30;99.90;;;;;;5102833;28;20384;-76
2022/07/09 04:57:46;;;;;;;33.55;21.75;;;16.30;99.90;;;;;;5081969;28;20419;-76
2022/07/09 05:00:13;;;;;;;31.80;22.30;;;16.30;99.90;;;;;;5103505;28;20492;-76
2022/07/09 05:02:40;;;;;;;36.83;21.77;;;16.20;99.90;;;;;;5068280;28;20587;-76
2022/07/09 05:05:07;;;;;;;27.40;19.88;;;16.30;99.90;;;;;;5063190;28;20502;-76
2022/07/09 05:07:35;;;;;;;29.90;21.02;;;16.20;99.90;;;;;;5080199;28;20113;-76
2022/07/09 05:10:03;;;;;;;33.10;21.05;;;16.30;99.90;;;;;;5064620;28;20083;-76
2022/07/09 05:12:30;;;;;;;27.65;19.77;;;16.30;99.90;;;;;;5079094;28;20098;-76
2022/07/09 05:14:57;;;;;;;39.20;21.70;;;16.40;99.90;;;;;;5063310;28;20035;-75
2022/07/09 05:17:24;;;;;;;24.92;20.88;;;16.50;99.90;;;;;;5081568;28;20138;-74
2022/07/09 05:19:51;;;;;;;30.02;22.38;;;16.50;99.90;;;;;;5063037;28;20044;-76
2022/07/09 05:22:17;;;;;;;26.73;21.27;;;16.60;99.90;;;;;;5062685;28;20036;-75
2022/07/09 05:24:44;;;;;;;32.40;22.80;;;16.60;99.90;;;;;;5062301;28;20048;-79
2022/07/09 05:27:11;;;;;;;32.88;22.90;;;16.70;99.90;;;;;;5064876;28;20501;-78
2022/07/09 05:29:38;;;;;;;24.55;20.52;;;16.60;99.90;;;;;;5061536;28;20051;-75
2022/07/09 05:32:05;;;;;;;30.63;22.02;;;16.60;99.90;;;;;;5081701;28;20072;-77
2022/07/09 05:34:32;;;;;;;25.85;20.58;;;16.90;99.90;;;;;;5063242;28;20190;-75
2022/07/09 05:36:59;;;;;;;23.80;21.38;;;17.20;99.90;;;;;;5055237;28;20040;-77
2022/07/09 05:39:26;;;;;;;30.27;21.45;;;17.50;99.90;;;;;;5045798;28;20427;-75
2022/07/09 05:41:53;;;;;;;27.60;21.52;;;17.50;99.90;;;;;;5080125;28;20064;-76
2022/07/09 05:44:19;;;;;;;25.35;22.75;;;17.50;99.90;;;;;;5056027;28;20044;-75
2022/07/09 05:46:51;;;;;;;24.83;22.35;;;17.60;99.90;;;;;;5060861;28;20059;-75
2022/07/09 05:49:18;;;;;;;23.60;21.33;;;17.60;99.90;;;;;;5078218;28;20044;-75
2022/07/09 05:51:45;;;;;;;24.92;22.42;;;17.70;99.90;;;;;;5059640;28;20401;-74
2022/07/09 05:54:11;;;;;;;24.30;22.05;;;17.70;99.90;;;;;;5045350;28;20036;-75
2022/07/09 05:56:38;;;;;;;23.00;20.90;;;17.70;99.90;;;;;;5052865;28;20097;-76
2022/07/09 05:59:05;;;;;;;23.77;21.27;;;17.50;99.90;;;;;;5057422;28;20044;-75
2022/07/09 06:01:32;;;;;;;25.77;22.17;;;17.50;99.90;;;;;;5036593;28;20563;-75
2022/07/09 06:03:59;;;;;;;25.83;23.25;;;17.50;99.90;;;;;;5062325;28;20052;-76
2022/07/09 06:06:26;;;;;;;23.88;21.55;;;17.50;99.90;;;;;;5044858;28;20519;-75
2022/07/09 06:08:53;;;;;;;24.85;22.17;;;17.40;99.90;;;;;;5060371;28;20507;-75
2022/07/09 06:11:20;;;;;;;25.20;22.80;;;17.20;99.90;;;;;;5045302;28;20043;-76
2022/07/09 06:13:47;;;;;;;24.25;22.10;;;17.20;99.90;;;;;;5071241;28;20549;-75
2022/07/09 06:16:13;;;;;;;24.70;22.30;;;17.10;99.90;;;;;;5045023;28;20090;-75
2022/07/09 06:18:40;;;;;;;26.15;23.83;;;17.20;99.90;;;;;;5059072;28;20075;-75
2022/07/09 06:21:07;;;;;;;26.05;23.55;;;17.20;99.90;;;;;;5062201;28;20047;-75
2022/07/09 06:23:34;;;;;;;24.70;22.00;;;17.10;99.90;;;;;;5063758;28;20055;-75
2022/07/09 06:26:01;;;;;;;30.42;23.58;;;17.10;99.90;;;;;;5051638;28;20043;-75
2022/07/09 06:28:28;;;;;;;23.55;21.58;;;17.10;99.90;;;;;;5062382;28;20040;-75
2022/07/09 06:30:54;;;;;;;23.40;21.13;;;17.00;99.90;;;;;;5055739;28;20279;-76
2022/07/09 06:33:21;;;;;;;25.95;23.00;;;17.00;99.90;;;;;;5044137;28;20056;-75
2022/07/09 06:35:48;;;;;;;26.80;22.50;;;16.90;99.90;;;;;;5042959;28;20043;-75
2022/07/09 06:38:15;;;;;;;25.27;22.63;;;16.80;99.90;;;;;;5062810;28;20047;-75
2022/07/09 06:40:42;;;;;;;28.50;23.85;;;16.70;99.90;;;;;;5059109;28;20051;-75
2022/07/09 06:43:09;;;;;;;24.92;22.30;;;16.70;99.90;;;;;;5061951;28;20040;-75
2022/07/09 06:45:43;;;;;;;31.63;23.63;;;16.70;99.90;;;;;;5062551;28;20040;-75
2022/07/09 06:48:10;;;;;;;26.65;23.60;;;16.70;99.90;;;;;;5061877;28;20048;-74
2022/07/09 06:50:37;;;;;;;26.90;24.02;;;16.70;99.90;;;;;;5059618;28;20531;-77
2022/07/09 06:53:04;;;;;;;25.77;23.15;;;16.80;99.90;;;;;;5062498;28;20074;-76
2022/07/09 06:55:31;;;;;;;25.38;22.55;;;16.80;99.90;;;;;;5051289;28;20427;-76
2022/07/09 06:57:59;;;;;;;24.73;22.33;;;16.90;99.90;;;;;;5063577;28;20173;-76
2022/07/09 07:00:26;;;;;;;24.67;22.30;;;16.90;99.90;;;;;;5069893;28;20062;-77
2022/07/09 07:02:53;;;;;;;22.95;20.83;;;16.90;99.90;;;;;;5042298;28;20064;-76
2022/07/09 07:05:20;;;;;;;22.45;20.42;;;17.00;99.90;;;;;;5040550;28;20460;-75
2022/07/09 07:07:46;;;;;;;21.75;20.00;;;17.20;99.90;;;;;;5059262;28;20105;-75
2022/07/09 07:10:13;;;;;;;24.55;22.05;;;17.40;99.90;;;;;;5049902;28;20040;-77
2022/07/09 07:12:40;;;;;;;23.02;21.23;;;17.50;99.90;;;;;;5060174;28;20052;-76
2022/07/09 07:15:08;;;;;;;22.83;20.92;;;17.50;99.90;;;;;;5052214;28;20222;-77
2022/07/09 07:17:35;;;;;;;22.77;20.92;;;17.50;99.90;;;;;;5058544;28;20052;-75
2022/07/09 07:20:01;;;;;;;22.40;20.70;;;17.40;99.90;;;;;;5061848;28;20117;-74
2022/07/09 07:22:28;;;;;;;22.20;20.30;;;17.50;99.90;;;;;;5079017;28;20044;-75
2022/07/09 07:24:55;;;;;;;21.83;20.02;;;17.60;99.90;;;;;;5046576;28;20557;-76
2022/07/09 07:27:22;;;;;;;23.33;21.63;;;17.50;99.90;;;;;;5065541;28;20265;-76
2022/07/09 07:29:49;;;;;;;23.23;21.17;;;17.60;99.90;;;;;;5050087;28;20040;-74
2022/07/09 07:32:15;;;;;;;24.00;21.98;;;17.40;99.90;;;;;;5048163;28;20399;-77
2022/07/09 07:34:42;;;;;;;22.45;20.55;;;17.40;99.90;;;;;;5047069;28;20546;-75
2022/07/09 07:37:09;;;;;;;22.15;20.23;;;17.50;99.90;;;;;;5055254;28;20048;-76
2022/07/09 07:39:36;;;;;;;21.30;19.48;;;17.70;99.90;;;;;;5044556;28;20094;-74
2022/07/09 07:42:05;;;;;;;21.58;19.95;;;17.90;99.90;;;;;;5065334;28;20044;-77
2022/07/09 07:44:32;;;;;;;22.15;20.48;;;18.00;99.90;;;;;;5063479;28;20489;-73
2022/07/09 07:46:58;;;;;;;24.80;22.77;;;18.10;99.90;;;;;;5065499;28;20036;-74
2022/07/09 07:49:25;;;;;;;22.48;20.80;;;18.20;99.90;;;;;;5065260;28;20105;-75
2022/07/09 07:51:52;;;;;;;24.35;22.55;;;18.20;99.90;;;;;;5062370;28;20571;-77
2022/07/09 07:54:19;;;;;;;25.08;23.08;;;18.40;99.90;;;;;;5064919;28;20303;-76
2022/07/09 07:56:45;;;;;;;24.13;22.33;;;18.50;99.90;;;;;;5063492;28;20070;-76
2022/07/09 07:59:12;;;;;;;23.70;22.20;;;18.40;99.90;;;;;;5064756;28;20258;-74
2022/07/09 08:01:39;;;;;;;22.77;21.38;;;18.40;99.90;;;;;;5062230;28;20044;-76
2022/07/09 08:04:06;;;;;;;24.88;22.92;;;18.50;99.90;;;;;;5076489;28;20075;-75
2022/07/09 08:06:34;;;;;;;24.35;22.65;;;19.00;99.90;;;;;;5058235;28;20101;-73
2022/07/09 08:09:01;;;;;;;26.42;24.02;;;19.30;99.90;;;;;;5078424;28;20055;-75
2022/07/09 08:11:28;;;;;;;24.20;22.58;;;19.10;99.90;;;;;;5064847;28;20094;-75
2022/07/09 08:13:55;;;;;;;23.98;22.58;;;19.40;99.90;;;;;;5080685;28;20056;-76
2022/07/09 08:16:22;;;;;;;24.77;23.15;;;19.60;99.90;;;;;;5063738;28;20113;-76
2022/07/09 08:18:48;;;;;;;24.25;22.58;;;19.40;99.90;;;;;;5062640;28;20040;-74
2022/07/09 08:21:15;;;;;;;23.70;22.20;;;19.10;99.90;;;;;;5065193;28;20044;-77
2022/07/09 08:23:51;;;;;;;24.02;22.13;;;19.10;99.90;;;;;;5061305;28;20055;-76
2022/07/09 08:26:28;;;;;;;23.30;21.65;;;19.10;99.90;;;;;;5064520;28;20048;-76
2022/07/09 08:28:56;;;;;;;22.90;21.42;;;19.00;99.90;;;;;;5064118;28;20048;-75
2022/07/09 08:31:24;;;;;;;22.80;21.30;;;19.10;99.90;;;;;;5065452;28;20032;-74
2022/07/09 08:33:50;;;;;;;23.15;21.55;;;18.90;99.90;;;;;;5063300;28;20056;-77
2022/07/09 08:36:18;;;;;;;23.13;21.58;;;18.90;99.90;;;;;;5048106;28;20063;-77
2022/07/09 08:38:46;;;;;;;22.48;20.88;;;18.90;99.90;;;;;;5065117;28;20549;-77
2022/07/09 08:41:15;;;;;;;23.13;21.52;;;19.00;99.90;;;;;;5051314;28;20047;-78
2022/07/09 08:43:51;;;;;;;23.58;22.05;;;19.10;99.90;;;;;;5064202;28;20051;-78
2022/07/09 08:46:18;;;;;;;23.25;21.45;;;19.10;99.90;;;;;;5067725;28;20036;-78
2022/07/09 08:48:45;;;;;;;23.23;21.55;;;18.90;99.90;;;;;;5049865;28;20471;-78
2022/07/09 08:51:13;;;;;;;22.33;20.77;;;18.90;99.90;;;;;;5066558;28;20065;-78
2022/07/09 08:53:42;;;;;;;22.80;21.25;;;19.00;99.90;;;;;;5064698;28;20044;-78
2022/07/09 08:56:12;;;;;;;22.48;20.88;;;19.20;99.90;;;;;;5067946;28;20044;-79
2022/07/09 08:58:40;;;;;;;23.48;21.98;;;19.30;99.90;;;;;;5065124;28;20101;-78
2022/07/09 09:01:07;;;;;;;22.23;21.02;;;19.50;99.90;;;;;;5066001;28;20044;-78
2022/07/09 09:03:35;;;;;;;22.77;21.38;;;19.70;99.90;;;;;;5049626;28;20060;-78
2022/07/09 09:06:08;;;;;;;23.73;22.33;;;19.70;99.90;;;;;;5065731;28;20637;-78
2022/07/09 09:08:36;;;;;;;22.25;20.88;;;19.40;99.90;;;;;;5065190;28;20452;-79
2022/07/09 09:11:04;;;;;;;21.83;20.42;;;19.20;99.90;;;;;;5065642;28;20028;-78
2022/07/09 09:13:39;;;;;;;22.77;21.33;;;19.20;99.90;;;;;;5066985;28;20512;-78
2022/07/09 09:16:08;;;;;;;24.27;22.33;;;19.20;99.90;;;;;;5051489;28;20721;-78
2022/07/09 09:18:36;;;;;;;22.85;21.45;;;19.30;99.90;;;;;;5063684;28;20060;-78
2022/07/09 09:21:05;;;;;;;22.80;21.38;;;19.40;99.90;;;;;;5060265;28;20040;-78
2022/07/09 09:23:47;;;;;;;23.23;21.83;;;19.70;99.90;;;;;;5047560;28;20298;-79
2022/07/09 09:26:16;;;;;;;24.88;23.33;;;19.90;99.90;;;;;;5045957;28;20044;-78
2022/07/09 09:28:53;;;;;;;24.02;22.48;;;19.90;99.90;;;;;;5063149;28;20043;-78
2022/07/09 09:31:36;;;;;;;22.55;21.15;;;19.80;99.90;;;;;;5060672;28;20040;-78
2022/07/09 09:34:06;;;;;;;22.35;20.83;;;19.60;99.90;;;;;;5061696;28;20077;-78
2022/07/09 09:36:34;;;;;;;21.45;20.25;;;19.50;99.90;;;;;;5060911;28;20059;-78
2022/07/09 09:39:25;;;;;;;22.98;21.38;;;19.40;99.90;;;;;;5062863;28;20054;-79
2022/07/09 09:41:54;;;;;;;23.02;21.45;;;19.30;99.90;;;;;;5063516;28;20047;-78
2022/07/09 09:44:24;;;;;;;22.92;21.35;;;19.30;99.90;;;;;;5064943;28;20040;-78
2022/07/09 09:46:51;;;;;;;22.77;21.48;;;19.40;99.90;;;;;;5063250;28;20044;-77
2022/07/09 09:49:19;;;;;;;23.00;21.50;;;19.40;99.90;;;;;;5043249;28;20194;-78
2022/07/09 09:51:56;;;;;;;22.55;21.02;;;19.30;99.90;;;;;;5045353;28;20670;-78
2022/07/09 09:54:23;;;;;;;22.48;21.08;;;19.20;99.90;;;;;;5048719;28;20051;-78
2022/07/09 09:56:50;;;;;;;23.50;21.88;;;19.20;99.90;;;;;;5075725;28;20146;-78
2022/07/09 09:59:17;;;;;;;23.30;21.75;;;19.10;99.90;;;;;;5048647;28;20055;-78
2022/07/09 10:01:44;;;;;;;22.02;20.55;;;19.00;99.90;;;;;;5062733;28;20615;-78
2022/07/09 10:04:13;;;;;;;21.95;20.35;;;19.20;99.90;;;;;;5066032;28;20044;-78
2022/07/09 10:06:41;;;;;;;22.50;21.15;;;19.30;99.90;;;;;;5062359;28;20032;-78
2022/07/09 10:09:11;;;;;;;21.88;20.30;;;19.10;99.90;;;;;;5049880;28;20070;-79
2022/07/09 10:11:46;;;;;;;21.15;20.05;;;19.00;99.90;;;;;;5044486;28;20040;-78
2022/07/09 10:14:25;;;;;;;22.15;20.77;;;19.00;99.90;;;;;;5052673;28;20365;-77
2022/07/09 10:16:52;;;;;;;23.15;21.45;;;19.10;99.90;;;;;;5046786;28;20097;-78
2022/07/09 10:19:29;;;;;;;22.27;20.98;;;19.10;99.90;;;;;;5049600;28;20500;-78
2022/07/09 10:21:57;;;;;;;23.65;21.88;;;19.20;99.90;;;;;;5082318;28;20052;-78
2022/07/09 10:24:33;;;;;;;23.75;22.38;;;19.10;99.90;;;;;;5064350;28;20089;-78
2022/07/09 10:27:10;;;;;;;23.85;22.45;;;19.10;99.90;;;;;;5058846;28;20067;-78
2022/07/09 10:30:04;;;;;;;25.45;23.92;;;19.10;99.90;;;;;;5063663;28;20565;-79
2022/07/09 10:32:31;;;;;;;;;;;19.30;99.90;;;;;;5064334;28;20051;-79
2022/07/09 10:34:59;;;;;;;24.90;23.30;;;19.20;99.90;;;;;;5049874;28;20019;-78
2022/07/09 10:37:41;;;;;;;24.58;23.15;;;19.20;99.90;;;;;;5049312;28;20051;-78
2022/07/09 10:40:13;;;;;;;23.55;21.92;;;19.10;99.90;;;;;;5065415;28;20048;-77
2022/07/09 10:42:42;;;;;;;23.13;21.52;;;19.10;99.90;;;;;;5059208;28;20837;-79
2022/07/09 10:45:18;;;;;;;25.48;23.67;;;19.30;99.90;;;;;;5047174;28;20036;-78
2022/07/09 10:47:46;;;;;;;24.73;23.23;;;19.60;99.90;;;;;;5059471;28;20036;-78
2022/07/09 10:50:13;;;;;;;25.75;23.95;;;20.10;99.90;;;;;;5047629;28;20054;-79
2022/07/09 10:52:41;;;;;;;23.08;21.63;;;20.50;99.90;;;;;;5045896;28;20048;-78
2022/07/09 10:55:08;;;;;;;22.83;21.30;;;20.80;99.90;;;;;;5065106;28;20048;-79
2022/07/09 10:57:35;;;;;;;23.40;21.60;;;20.80;99.90;;;;;;5047418;28;20044;-78
2022/07/09 11:00:03;;;;;;;22.58;21.38;;;20.70;99.90;;;;;;5063651;28;20047;-78
2022/07/09 11:02:30;;;;;;;23.58;22.27;;;20.40;99.90;;;;;;5049533;28;20509;-79
2022/07/09 11:04:57;;;;;;;23.05;21.73;;;20.20;99.90;;;;;;5052796;28;20117;-78
2022/07/09 11:07:25;;;;;;;23.70;21.95;;;20.10;99.90;;;;;;5070099;28;20037;-79
2022/07/09 11:09:52;;;;;;;21.92;20.42;;;20.30;99.90;;;;;;5049254;28;20572;-78
2022/07/09 11:12:21;;;;;;;23.17;21.73;;;20.30;99.90;;;;;;5073458;28;20042;-78
2022/07/09 11:14:50;;;;;;;22.30;20.60;;;20.30;99.90;;;;;;5052261;28;20622;-78
2022/07/09 11:17:18;;;;;;;22.30;21.10;;;20.40;99.90;;;;;;5087133;28;20036;-78
2022/07/09 11:19:46;;;;;;;25.35;23.80;;;20.30;99.90;;;;;;5050876;28;20189;-79
2022/07/09 11:22:15;;;;;;;23.67;22.38;;;20.50;99.90;;;;;;5068225;28;20048;-78
2022/07/09 11:24:42;;;;;;;22.30;21.20;;;20.80;99.90;;;;;;5055165;28;20123;-79
2022/07/09 11:27:09;;;;;;;23.65;22.25;;;20.90;99.90;;;;;;5054431;28;20052;-78
2022/07/09 11:29:36;;;;;;;22.67;21.48;;;21.00;99.90;;;;;;5052288;28;20051;-78
2022/07/09 11:32:04;;;;;;;23.60;22.40;;;20.90;99.90;;;;;;5053928;28;20036;-79
2022/07/09 11:34:30;;;;;;;24.15;22.75;;;20.80;99.90;;;;;;5066240;28;20040;-79
2022/07/09 11:36:58;;;;;;;24.38;22.90;;;20.50;99.90;;;;;;5051446;28;20048;-79
2022/07/09 11:39:30;;;;;;;23.13;21.63;;;20.30;99.90;;;;;;5052144;28;20709;-79
2022/07/09 11:41:58;;;;;;;23.20;21.83;;;20.10;99.90;;;;;;5084736;28;20051;-79
2022/07/09 11:44:27;;;;;;;22.88;21.42;;;20.10;99.90;;;;;;5051690;28;20508;-78
2022/07/09 11:47:07;;;;;;;24.85;23.35;;;20.20;99.90;;;;;;5085413;28;20063;-79
2022/07/09 11:49:39;;;;;;;25.35;23.83;;;20.30;99.90;;;;;;5086445;28;20036;-78
2022/07/09 11:52:25;;;;;;;23.10;21.83;;;20.80;99.90;;;;;;5063035;28;20036;-79
2022/07/09 11:55:01;;;;;;;22.67;21.17;;;21.30;99.90;;;;;;5068542;28;20063;-78
2022/07/09 11:57:29;;;;;;;23.13;21.80;;;21.40;99.90;;;;;;5086944;28;20044;-78
2022/07/09 11:59:57;;;;;;;22.27;21.17;;;21.30;99.90;;;;;;5069706;28;20176;-78
2022/07/09 12:02:33;;;;;;;22.65;21.25;;;21.30;99.90;;;;;;5069428;28;20120;-79
2022/07/09 12:05:03;;;;;;;22.08;20.90;;;21.20;99.90;;;;;;5051861;28;20055;-79
2022/07/09 12:07:30;;;;;;;23.02;21.63;;;21.10;99.90;;;;;;5068148;28;20043;-78
2022/07/09 12:10:04;;;;;;;23.60;22.17;;;20.90;99.90;;;;;;5085607;28;20043;-79
2022/07/09 12:12:33;;;;;;;23.07;21.87;;;20.70;99.90;;;;;;5045148;28;20051;-79
2022/07/09 12:15:02;;;;;;;24.38;22.38;;;20.70;99.90;;;;;;5065361;28;20048;-78
2022/07/09 12:17:35;;;;;;;21.95;20.67;;;20.60;99.90;;;;;;5048484;28;20580;-79
2022/07/09 12:20:06;;;;;;;23.02;21.73;;;20.50;99.90;;;;;;5061663;28;20097;-78
2022/07/09 12:22:33;;;;;;;23.48;22.08;;;20.60;99.90;;;;;;5060956;28;20396;-78
2022/07/09 12:25:00;;;;;;;22.48;20.77;;;20.70;99.90;;;;;;5061623;28;20198;-79
2022/07/09 12:27:27;;;;;;;23.85;22.55;;;20.70;99.90;;;;;;5066639;28;20048;-79
2022/07/09 12:29:53;;;;;;;24.48;22.83;;;20.80;99.90;;;;;;5047929;28;20422;-78
2022/07/09 12:32:20;;;;;;;24.33;22.77;;;21.00;99.90;;;;;;5048125;28;20047;-79